SHASTA DAM (USBR) (SHA)

Elevation: 1067' · SACRAMENTO R basin · Operator: US Bureau of Reclamation

Provisional data, subject to change.
Query executed Saturday at 10:46:48   clock

Select a sensor type for a plot of data.
Note: Reservoir Flows are daily averages.

Earlier

Date RES ELE    STORAGE    RES CHG    TOC STO    ABV TOC    OUTFLOW    INFLOW    EVAP    FNF    RIV REL    PPT INC    RAIN    SPILL    DIS PWR   
 FEET   AF   AF   AF   AF   CFS   CFS   CFS   CFS   CFS   INCHES   INCHES   CFS   CFS  
03/27/2015 992.90 2676904 2509 4549012 -1872108 2877 4216 74 4816 0 0.00 46.03 0 2877
03/28/2015 992.98 2678576 1672 -- -- 3161 4244 240 4438 0 0.00 46.03 0 3161
03/29/2015 993.20 2683198 4622 4552100 -- 2013 4540 197 4021 0 0.00 46.03 0 2013
03/30/2015 993.36 2686561 3363 4552100 -- 3244 5155 216 3886 0 0.00 46.03 0 3244
03/31/2015 993.48 2689083 2522 4552100 -- 2729 4204 204 3999 0 0.00 46.03 0 2729
04/01/2015 993.51 2689714 631 4552100 -1862386 3189 3692 185 3561 0 0.00 46.03 0 3189
04/02/2015 993.54 2690344 630 4552100 -1861756 3141 3533 74 3698 0 0.00 46.03 0 3141
04/03/2015 993.70 2693707 3363 4552100 -1858393 2783 4589 111 3924 0 0.00 46.03 0 2783
04/04/2015 993.75 2694758 1051 4552100 -1857342 2857 3579 192 3497 0 0.00 46.03 0 2857
04/05/2015 993.87 2697281 2523 4552100 -1854819 2888 4290 130 4190 0 0.00 46.03 0 2888
04/06/2015 993.98 2699593 2312 4552100 -1852507 2830 4021 25 3665 0 0.20 46.23 0 2830
04/07/2015 994.20 2704240 4647 4552100 -1847860 2978 5383 62 5962 0 0.70 46.93 0 2978
04/08/2015 994.27 2705719 1479 4552100 -1846381 3424 4182 12 4314 0 1.15 48.08 0 3424
04/09/2015 994.48 2710157 4438 4552100 -1841943 2203 4452 12 4344 0 0.00 48.08 0 2203
04/10/2015 994.61 2712904 2747 4552100 -1839196 2811 4289 93 4137 0 0.00 48.08 0 2811
04/11/2015 994.65 2713749 845 4552100 -1838351 2586 3167 155 3826 0 0.00 48.08 0 2586
04/12/2015 994.80 2716919 -- 4552100 -1835181 2199 3859 62 3383 0 0.00 48.08 0 2199
04/13/2015 994.83 2717553 634 4552100 -1834547 3105 3531 106 3452 0 0.00 48.08 0 3105
04/14/2015 994.96 2720301 2748 4552100 -1831799 2776 4279 118 3639 0 0.00 48.08 0 2776
04/15/2015 995.04 2721996 1695 4552100 -1830104 3051 4024 118 3786 0 0.00 48.08 0 3051
04/16/2015 995.04 2721996 0 4552100 -1830104 3472 3590 118 3587 758 0.00 48.08 0 2714
04/17/2015 994.98 2720723 -1273 4552100 -1831377 3979 3543 206 3376 626 0.00 48.08 0 3353
04/18/2015 994.90 2719033 -1690 4552100 -1833067 3803 3100 149 3362 655 0.00 48.08 0 3148
04/19/2015 994.89 2718821 -212 4552100 -1833279 3487 3567 187 3362 753 0.00 48.08 0 2734
04/20/2015 994.87 2718399 -422 4552100 -1833701 3887 3817 143 3602 767 0.00 48.08 0 3120
04/21/2015 994.76 2716074 -2325 4552100 -1836026 4318 3302 156 3456 948 0.00 48.08 0 3370
04/22/2015 994.64 2713538 -2536 4552100 -1838562 4607 3490 162 3449 1131 0.00 48.08 0 3476
04/23/2015 994.43 2709100 -4438 4552100 -1843000 4803 2752 186 3339 1118 0.00 48.08 0 3685
04/24/2015 994.18 2703817 -5283 4552100 -1848283 5733 3238 168 3436 1313 0.00 48.08 0 4420
04/25/2015 -- -- -- -- -- -- -- -- -- -- -- -- -- --

Later | Latest

Warning! This data is preliminary and subject to revision.

Show SHA Map | Plot SHA Data | 1 Month SHA Data | Real-Time SHA Data | SHA Info